sensor_id;sensor_type;location;lat;lon;timestamp;P1;durP1;ratioP1;P2;durP2;ratioP2
30862;SDS011;17573;55.922;37.540;2022-12-29T00:01:57;8.43;;;6.05;;
30862;SDS011;17573;55.922;37.540;2022-12-29T00:04:30;10.45;;;5.63;;
30862;SDS011;17573;55.922;37.540;2022-12-29T00:07:22;8.98;;;6.13;;
30862;SDS011;17573;55.922;37.540;2022-12-29T00:09:54;6.63;;;4.47;;
30862;SDS011;17573;55.922;37.540;2022-12-29T00:12:47;7.53;;;5.22;;
30862;SDS011;17573;55.922;37.540;2022-12-29T00:15:39;10.98;;;5.70;;
30862;SDS011;17573;55.922;37.540;2022-12-29T00:18:31;12.00;;;7.72;;
30862;SDS011;17573;55.922;37.540;2022-12-29T00:21:04;11.35;;;5.82;;
30862;SDS011;17573;55.922;37.540;2022-12-29T00:24:20;13.60;;;6.95;;
30862;SDS011;17573;55.922;37.540;2022-12-29T00:30:15;12.25;;;4.88;;
30862;SDS011;17573;55.922;37.540;2022-12-29T00:33:12;11.43;;;5.70;;
30862;SDS011;17573;55.922;37.540;2022-12-29T00:36:28;11.45;;;4.63;;
30862;SDS011;17573;55.922;37.540;2022-12-29T00:39:15;6.55;;;4.43;;
30862;SDS011;17573;55.922;37.540;2022-12-29T00:42:26;11.07;;;3.95;;
30862;SDS011;17573;55.922;37.540;2022-12-29T00:45:17;7.68;;;4.80;;
30862;SDS011;17573;55.922;37.540;2022-12-29T00:48:10;10.45;;;6.85;;
30862;SDS011;17573;55.922;37.540;2022-12-29T00:50:44;12.98;;;7.18;;
30862;SDS011;17573;55.922;37.540;2022-12-29T00:53:36;8.73;;;6.70;;
30862;SDS011;17573;55.922;37.540;2022-12-29T00:56:09;7.75;;;5.60;;
30862;SDS011;17573;55.922;37.540;2022-12-29T00:59:03;6.82;;;5.65;;
30862;SDS011;17573;55.922;37.540;2022-12-29T01:01:37;8.80;;;4.55;;
30862;SDS011;17573;55.922;37.540;2022-12-29T01:04:30;7.30;;;3.95;;
30862;SDS011;17573;55.922;37.540;2022-12-29T01:07:03;10.63;;;4.43;;
30862;SDS011;17573;55.922;37.540;2022-12-29T01:09:57;8.95;;;4.78;;
30862;SDS011;17573;55.922;37.540;2022-12-29T01:12:42;5.90;;;3.70;;
30862;SDS011;17573;55.922;37.540;2022-12-29T01:15:35;7.13;;;3.80;;
30862;SDS011;17573;55.922;37.540;2022-12-29T01:18:08;8.73;;;3.80;;
30862;SDS011;17573;55.922;37.540;2022-12-29T01:21:02;8.20;;;4.32;;
30862;SDS011;17573;55.922;37.540;2022-12-29T01:23:36;9.40;;;3.92;;
30862;SDS011;17573;55.922;37.540;2022-12-29T01:26:28;10.70;;;4.68;;
30862;SDS011;17573;55.922;37.540;2022-12-29T01:29:01;6.68;;;4.50;;
30862;SDS011;17573;55.922;37.540;2022-12-29T01:31:53;8.25;;;4.25;;
30862;SDS011;17573;55.922;37.540;2022-12-29T01:34:26;11.40;;;4.28;;
30862;SDS011;17573;55.922;37.540;2022-12-29T01:37:18;5.57;;;4.15;;
30862;SDS011;17573;55.922;37.540;2022-12-29T01:39:51;8.88;;;4.40;;
30862;SDS011;17573;55.922;37.540;2022-12-29T01:42:44;11.32;;;4.90;;
30862;SDS011;17573;55.922;37.540;2022-12-29T01:45:17;11.32;;;5.28;;
30862;SDS011;17573;55.922;37.540;2022-12-29T01:48:10;12.10;;;4.38;;
30862;SDS011;17573;55.922;37.540;2022-12-29T01:50:50;10.45;;;5.05;;
30862;SDS011;17573;55.922;37.540;2022-12-29T01:53:43;8.63;;;4.50;;
30862;SDS011;17573;55.922;37.540;2022-12-29T01:56:17;13.05;;;4.97;;
30862;SDS011;17573;55.922;37.540;2022-12-29T01:59:12;9.95;;;7.75;;
30862;SDS011;17573;55.922;37.540;2022-12-29T02:01:48;9.73;;;5.15;;
30862;SDS011;17573;55.922;37.540;2022-12-29T02:04:41;6.50;;;4.88;;
30862;SDS011;17573;55.922;37.540;2022-12-29T02:07:18;10.63;;;5.53;;
30862;SDS011;17573;55.922;37.540;2022-12-29T02:10:12;5.47;;;4.45;;
30862;SDS011;17573;55.922;37.540;2022-12-29T02:12:46;12.57;;;5.38;;
30862;SDS011;17573;55.922;37.540;2022-12-29T02:22:41;12.80;;;5.07;;
30862;SDS011;17573;55.922;37.540;2022-12-29T02:29:05;6.97;;;4.88;;
30862;SDS011;17573;55.922;37.540;2022-12-29T02:35:29;15.88;;;5.22;;
30862;SDS011;17573;55.922;37.540;2022-12-29T02:51:08;8.30;;;4.72;;
30862;SDS011;17573;55.922;37.540;2022-12-29T02:54:22;14.88;;;6.18;;
30862;SDS011;17573;55.922;37.540;2022-12-29T03:00:15;11.57;;;5.75;;
30862;SDS011;17573;55.922;37.540;2022-12-29T03:12:29;12.88;;;7.78;;
30862;SDS011;17573;55.922;37.540;2022-12-29T03:15:30;12.30;;;6.20;;
30862;SDS011;17573;55.922;37.540;2022-12-29T03:18:52;9.32;;;5.32;;
30862;SDS011;17573;55.922;37.540;2022-12-29T03:24:48;9.60;;;5.20;;
30862;SDS011;17573;55.922;37.540;2022-12-29T03:27:29;5.93;;;5.22;;
30862;SDS011;17573;55.922;37.540;2022-12-29T03:30:24;10.65;;;5.65;;
30862;SDS011;17573;55.922;37.540;2022-12-29T03:32:58;13.70;;;5.60;;
30862;SDS011;17573;55.922;37.540;2022-12-29T03:35:55;11.43;;;4.63;;
30862;SDS011;17573;55.922;37.540;2022-12-29T03:38:39;8.95;;;5.10;;
30862;SDS011;17573;55.922;37.540;2022-12-29T03:41:35;9.98;;;6.30;;
30862;SDS011;17573;55.922;37.540;2022-12-29T03:44:08;12.63;;;6.10;;
30862;SDS011;17573;55.922;37.540;2022-12-29T03:47:02;11.65;;;5.20;;
30862;SDS011;17573;55.922;37.540;2022-12-29T03:49:35;6.45;;;4.55;;
30862;SDS011;17573;55.922;37.540;2022-12-29T03:52:28;9.35;;;5.20;;
30862;SDS011;17573;55.922;37.540;2022-12-29T03:55:01;11.95;;;5.22;;
30862;SDS011;17573;55.922;37.540;2022-12-29T03:57:53;12.68;;;6.82;;
30862;SDS011;17573;55.922;37.540;2022-12-29T04:00:41;11.65;;;4.90;;
30862;SDS011;17573;55.922;37.540;2022-12-29T04:03:34;16.17;;;5.25;;
30862;SDS011;17573;55.922;37.540;2022-12-29T04:06:07;11.02;;;6.15;;
30862;SDS011;17573;55.922;37.540;2022-12-29T04:09:05;11.98;;;5.72;;
30862;SDS011;17573;55.922;37.540;2022-12-29T04:11:43;9.02;;;4.80;;
30862;SDS011;17573;55.922;37.540;2022-12-29T04:14:35;8.30;;;5.20;;
30862;SDS011;17573;55.922;37.540;2022-12-29T04:17:08;9.48;;;5.03;;
30862;SDS011;17573;55.922;37.540;2022-12-29T04:20:03;21.75;;;5.65;;
30862;SDS011;17573;55.922;37.540;2022-12-29T04:22:59;12.23;;;5.82;;
30862;SDS011;17573;55.922;37.540;2022-12-29T04:25:55;8.23;;;5.33;;
30862;SDS011;17573;55.922;37.540;2022-12-29T04:28:28;11.57;;;6.07;;
30862;SDS011;17573;55.922;37.540;2022-12-29T04:31:34;11.93;;;6.13;;
30862;SDS011;17573;55.922;37.540;2022-12-29T04:34:07;7.88;;;5.85;;
30862;SDS011;17573;55.922;37.540;2022-12-29T04:37:00;15.38;;;5.75;;
30862;SDS011;17573;55.922;37.540;2022-12-29T04:39:33;15.38;;;5.63;;
30862;SDS011;17573;55.922;37.540;2022-12-29T04:42:26;10.60;;;5.57;;
30862;SDS011;17573;55.922;37.540;2022-12-29T04:44:59;11.45;;;6.47;;
30862;SDS011;17573;55.922;37.540;2022-12-29T04:48:08;10.68;;;5.55;;
30862;SDS011;17573;55.922;37.540;2022-12-29T04:51:04;14.57;;;5.63;;
30862;SDS011;17573;55.922;37.540;2022-12-29T04:53:57;15.95;;;6.53;;
30862;SDS011;17573;55.922;37.540;2022-12-29T04:56:31;15.68;;;5.95;;
30862;SDS011;17573;55.922;37.540;2022-12-29T04:59:27;12.35;;;5.75;;
30862;SDS011;17573;55.922;37.540;2022-12-29T05:02:00;14.75;;;5.70;;
30862;SDS011;17573;55.922;37.540;2022-12-29T05:04:53;18.23;;;5.55;;
30862;SDS011;17573;55.922;37.540;2022-12-29T05:07:28;14.02;;;5.68;;
30862;SDS011;17573;55.922;37.540;2022-12-29T05:10:21;15.85;;;5.88;;
30862;SDS011;17573;55.922;37.540;2022-12-29T05:15:52;13.60;;;6.68;;
30862;SDS011;17573;55.922;37.540;2022-12-29T05:18:25;14.13;;;5.82;;
30862;SDS011;17573;55.922;37.540;2022-12-29T05:21:21;9.02;;;6.03;;
30862;SDS011;17573;55.922;37.540;2022-12-29T05:23:55;17.80;;;9.88;;
30862;SDS011;17573;55.922;37.540;2022-12-29T05:26:48;15.95;;;6.32;;
30862;SDS011;17573;55.922;37.540;2022-12-29T05:29:36;11.77;;;6.78;;
30862;SDS011;17573;55.922;37.540;2022-12-29T05:32:28;11.10;;;7.13;;
30862;SDS011;17573;55.922;37.540;2022-12-29T05:35:01;17.35;;;6.75;;
30862;SDS011;17573;55.922;37.540;2022-12-29T05:37:53;12.63;;;6.28;;
30862;SDS011;17573;55.922;37.540;2022-12-29T05:40:26;10.52;;;6.53;;
30862;SDS011;17573;55.922;37.540;2022-12-29T05:43:28;8.45;;;6.15;;
30862;SDS011;17573;55.922;37.540;2022-12-29T05:46:11;11.75;;;6.25;;
30862;SDS011;17573;55.922;37.540;2022-12-29T05:49:30;11.23;;;5.90;;
30862;SDS011;17573;55.922;37.540;2022-12-29T05:52:19;8.40;;;5.88;;
30862;SDS011;17573;55.922;37.540;2022-12-29T05:55:12;10.73;;;5.85;;
30862;SDS011;17573;55.922;37.540;2022-12-29T05:57:49;16.40;;;6.55;;
30862;SDS011;17573;55.922;37.540;2022-12-29T06:00:42;12.27;;;6.50;;
30862;SDS011;17573;55.922;37.540;2022-12-29T06:03:16;16.60;;;6.68;;
30862;SDS011;17573;55.922;37.540;2022-12-29T06:06:10;11.25;;;5.95;;
30862;SDS011;17573;55.922;37.540;2022-12-29T06:08:43;12.20;;;6.82;;
30862;SDS011;17573;55.922;37.540;2022-12-29T06:11:36;19.40;;;7.18;;
30862;SDS011;17573;55.922;37.540;2022-12-29T06:14:09;13.68;;;6.78;;
30862;SDS011;17573;55.922;37.540;2022-12-29T06:17:01;14.52;;;6.85;;
30862;SDS011;17573;55.922;37.540;2022-12-29T06:19:34;16.23;;;8.98;;
30862;SDS011;17573;55.922;37.540;2022-12-29T06:22:26;11.02;;;6.63;;
30862;SDS011;17573;55.922;37.540;2022-12-29T06:25:00;10.98;;;6.78;;
30862;SDS011;17573;55.922;37.540;2022-12-29T06:27:54;11.57;;;6.82;;
30862;SDS011;17573;55.922;37.540;2022-12-29T06:30:28;10.65;;;6.72;;
30862;SDS011;17573;55.922;37.540;2022-12-29T06:33:20;17.30;;;8.00;;
30862;SDS011;17573;55.922;37.540;2022-12-29T06:35:53;17.50;;;7.13;;
30862;SDS011;17573;55.922;37.540;2022-12-29T06:38:45;15.95;;;7.10;;
30862;SDS011;17573;55.922;37.540;2022-12-29T06:41:19;15.05;;;6.97;;
30862;SDS011;17573;55.922;37.540;2022-12-29T06:44:30;13.45;;;5.85;;
30862;SDS011;17573;55.922;37.540;2022-12-29T06:47:07;17.73;;;7.25;;
30862;SDS011;17573;55.922;37.540;2022-12-29T06:50:01;18.45;;;7.70;;
30862;SDS011;17573;55.922;37.540;2022-12-29T06:52:34;11.13;;;7.72;;
30862;SDS011;17573;55.922;37.540;2022-12-29T06:55:26;15.30;;;7.43;;
30862;SDS011;17573;55.922;37.540;2022-12-29T06:58:00;13.85;;;7.47;;
30862;SDS011;17573;55.922;37.540;2022-12-29T07:00:52;16.10;;;7.72;;
30862;SDS011;17573;55.922;37.540;2022-12-29T07:03:25;13.15;;;8.00;;
30862;SDS011;17573;55.922;37.540;2022-12-29T07:06:17;12.15;;;7.43;;
30862;SDS011;17573;55.922;37.540;2022-12-29T07:08:50;18.05;;;6.95;;
30862;SDS011;17573;55.922;37.540;2022-12-29T07:11:43;12.95;;;7.63;;
30862;SDS011;17573;55.922;37.540;2022-12-29T07:14:16;24.52;;;8.57;;
30862;SDS011;17573;55.922;37.540;2022-12-29T07:17:08;18.48;;;8.48;;
30862;SDS011;17573;55.922;37.540;2022-12-29T07:19:41;16.02;;;8.55;;
30862;SDS011;17573;55.922;37.540;2022-12-29T07:22:33;20.77;;;9.43;;
30862;SDS011;17573;55.922;37.540;2022-12-29T07:25:06;15.93;;;8.60;;
30862;SDS011;17573;55.922;37.540;2022-12-29T07:27:59;29.48;;;11.82;;
30862;SDS011;17573;55.922;37.540;2022-12-29T07:30:32;18.73;;;9.05;;
30862;SDS011;17573;55.922;37.540;2022-12-29T07:33:24;11.02;;;7.65;;
30862;SDS011;17573;55.922;37.540;2022-12-29T07:35:57;19.98;;;7.97;;
30862;SDS011;17573;55.922;37.540;2022-12-29T07:38:51;16.02;;;8.45;;
30862;SDS011;17573;55.922;37.540;2022-12-29T07:41:25;10.48;;;7.75;;
30862;SDS011;17573;55.922;37.540;2022-12-29T07:44:17;10.98;;;7.97;;
30862;SDS011;17573;55.922;37.540;2022-12-29T07:47:09;12.82;;;7.97;;
30862;SDS011;17573;55.922;37.540;2022-12-29T07:50:02;11.73;;;7.00;;
30862;SDS011;17573;55.922;37.540;2022-12-29T07:52:35;15.05;;;8.88;;
30862;SDS011;17573;55.922;37.540;2022-12-29T07:55:27;16.83;;;8.77;;
30862;SDS011;17573;55.922;37.540;2022-12-29T07:58:00;13.35;;;9.25;;
30862;SDS011;17573;55.922;37.540;2022-12-29T08:00:55;15.50;;;8.63;;
30862;SDS011;17573;55.922;37.540;2022-12-29T08:03:28;15.77;;;8.68;;
30862;SDS011;17573;55.922;37.540;2022-12-29T08:06:21;14.68;;;8.88;;
30862;SDS011;17573;55.922;37.540;2022-12-29T08:08:55;36.08;;;10.25;;
30862;SDS011;17573;55.922;37.540;2022-12-29T08:11:47;15.70;;;7.50;;
30862;SDS011;17573;55.922;37.540;2022-12-29T08:14:20;18.65;;;8.70;;
30862;SDS011;17573;55.922;37.540;2022-12-29T08:17:12;17.77;;;9.65;;
30862;SDS011;17573;55.922;37.540;2022-12-29T08:19:45;22.02;;;11.00;;
30862;SDS011;17573;55.922;37.540;2022-12-29T08:22:37;16.45;;;8.90;;
30862;SDS011;17573;55.922;37.540;2022-12-29T08:25:11;16.48;;;8.35;;
30862;SDS011;17573;55.922;37.540;2022-12-29T08:28:04;13.63;;;9.05;;
30862;SDS011;17573;55.922;37.540;2022-12-29T08:30:38;17.73;;;9.02;;
30862;SDS011;17573;55.922;37.540;2022-12-29T08:33:30;18.00;;;8.57;;
30862;SDS011;17573;55.922;37.540;2022-12-29T08:36:04;13.27;;;9.95;;
30862;SDS011;17573;55.922;37.540;2022-12-29T08:38:58;15.88;;;9.48;;
30862;SDS011;17573;55.922;37.540;2022-12-29T08:41:31;13.48;;;8.73;;
30862;SDS011;17573;55.922;37.540;2022-12-29T08:44:24;12.98;;;9.27;;
30862;SDS011;17573;55.922;37.540;2022-12-29T08:46:57;15.63;;;9.63;;
30862;SDS011;17573;55.922;37.540;2022-12-29T08:49:49;15.48;;;8.73;;
30862;SDS011;17573;55.922;37.540;2022-12-29T08:52:22;15.20;;;8.80;;
30862;SDS011;17573;55.922;37.540;2022-12-29T08:55:15;21.25;;;12.95;;
30862;SDS011;17573;55.922;37.540;2022-12-29T08:57:48;18.50;;;8.57;;
30862;SDS011;17573;55.922;37.540;2022-12-29T09:00:41;21.90;;;9.20;;
30862;SDS011;17573;55.922;37.540;2022-12-29T09:03:14;16.67;;;9.77;;
30862;SDS011;17573;55.922;37.540;2022-12-29T09:06:07;16.48;;;10.25;;
30862;SDS011;17573;55.922;37.540;2022-12-29T09:08:40;14.27;;;9.40;;
30862;SDS011;17573;55.922;37.540;2022-12-29T09:11:32;27.20;;;10.13;;
30862;SDS011;17573;55.922;37.540;2022-12-29T09:14:05;20.92;;;9.23;;
30862;SDS011;17573;55.922;37.540;2022-12-29T09:16:58;18.15;;;9.43;;
30862;SDS011;17573;55.922;37.540;2022-12-29T09:19:49;16.42;;;9.35;;
30862;SDS011;17573;55.922;37.540;2022-12-29T09:22:42;17.58;;;8.52;;
30862;SDS011;17573;55.922;37.540;2022-12-29T09:25:15;19.52;;;9.70;;
30862;SDS011;17573;55.922;37.540;2022-12-29T09:28:09;16.27;;;9.70;;
30862;SDS011;17573;55.922;37.540;2022-12-29T09:30:42;17.25;;;11.43;;
30862;SDS011;17573;55.922;37.540;2022-12-29T09:33:35;18.48;;;9.68;;
30862;SDS011;17573;55.922;37.540;2022-12-29T09:36:08;21.65;;;10.55;;
30862;SDS011;17573;55.922;37.540;2022-12-29T09:39:00;17.85;;;11.13;;
30862;SDS011;17573;55.922;37.540;2022-12-29T09:41:37;16.42;;;9.65;;
30862;SDS011;17573;55.922;37.540;2022-12-29T09:47:19;16.30;;;9.98;;
30862;SDS011;17573;55.922;37.540;2022-12-29T09:53:13;14.68;;;9.52;;
30862;SDS011;17573;55.922;37.540;2022-12-29T09:56:17;18.83;;;9.75;;
30862;SDS011;17573;55.922;37.540;2022-12-29T09:59:10;21.13;;;10.10;;
30862;SDS011;17573;55.922;37.540;2022-12-29T10:02:31;20.88;;;8.75;;
30862;SDS011;17573;55.922;37.540;2022-12-29T10:05:15;22.83;;;10.95;;
30862;SDS011;17573;55.922;37.540;2022-12-29T10:14:21;16.02;;;10.15;;
30862;SDS011;17573;55.922;37.540;2022-12-29T10:26:38;13.40;;;9.60;;
30862;SDS011;17573;55.922;37.540;2022-12-29T10:29:19;23.52;;;10.30;;
30862;SDS011;17573;55.922;37.540;2022-12-29T10:34:50;17.50;;;11.23;;
30862;SDS011;17573;55.922;37.540;2022-12-29T10:44:06;16.13;;;10.13;;
30862;SDS011;17573;55.922;37.540;2022-12-29T10:46:42;17.45;;;10.75;;
30862;SDS011;17573;55.922;37.540;2022-12-29T10:49:37;15.63;;;11.93;;
30862;SDS011;17573;55.922;37.540;2022-12-29T10:52:13;20.70;;;10.68;;
30862;SDS011;17573;55.922;37.540;2022-12-29T10:55:10;19.48;;;11.48;;
30862;SDS011;17573;55.922;37.540;2022-12-29T10:57:44;25.85;;;11.32;;
30862;SDS011;17573;55.922;37.540;2022-12-29T11:00:37;16.38;;;11.55;;
30862;SDS011;17573;55.922;37.540;2022-12-29T11:06:23;15.57;;;10.30;;
30862;SDS011;17573;55.922;37.540;2022-12-29T11:09:02;18.95;;;10.95;;
30862;SDS011;17573;55.922;37.540;2022-12-29T11:15:12;28.25;;;11.20;;
30862;SDS011;17573;55.922;37.540;2022-12-29T11:18:16;26.67;;;12.38;;
30862;SDS011;17573;55.922;37.540;2022-12-29T11:20:53;20.35;;;12.95;;
30862;SDS011;17573;55.922;37.540;2022-12-29T11:23:54;22.20;;;12.43;;
30862;SDS011;17573;55.922;37.540;2022-12-29T11:26:28;27.05;;;12.65;;
30862;SDS011;17573;55.922;37.540;2022-12-29T11:29:24;23.05;;;13.05;;
30862;SDS011;17573;55.922;37.540;2022-12-29T11:32:05;28.38;;;13.57;;
30862;SDS011;17573;55.922;37.540;2022-12-29T11:35:17;29.30;;;14.10;;
30862;SDS011;17573;55.922;37.540;2022-12-29T11:38:06;30.33;;;13.15;;
30862;SDS011;17573;55.922;37.540;2022-12-29T11:41:11;19.60;;;12.85;;
30862;SDS011;17573;55.922;37.540;2022-12-29T11:43:46;29.65;;;14.82;;
30862;SDS011;17573;55.922;37.540;2022-12-29T11:46:38;28.25;;;14.55;;
30862;SDS011;17573;55.922;37.540;2022-12-29T11:49:12;31.77;;;14.05;;
30862;SDS011;17573;55.922;37.540;2022-12-29T11:52:06;32.78;;;14.90;;
30862;SDS011;17573;55.922;37.540;2022-12-29T11:54:39;27.85;;;12.95;;
30862;SDS011;17573;55.922;37.540;2022-12-29T11:57:32;41.88;;;14.60;;
30862;SDS011;17573;55.922;37.540;2022-12-29T12:00:39;21.85;;;13.48;;
30862;SDS011;17573;55.922;37.540;2022-12-29T12:03:27;31.83;;;14.75;;
30862;SDS011;17573;55.922;37.540;2022-12-29T12:06:02;30.50;;;13.48;;
30862;SDS011;17573;55.922;37.540;2022-12-29T12:08:59;31.17;;;14.02;;
30862;SDS011;17573;55.922;37.540;2022-12-29T12:11:37;29.02;;;13.48;;
30862;SDS011;17573;55.922;37.540;2022-12-29T12:14:34;22.98;;;13.02;;
30862;SDS011;17573;55.922;37.540;2022-12-29T12:23:09;30.38;;;16.30;;
30862;SDS011;17573;55.922;37.540;2022-12-29T12:28:53;21.92;;;14.60;;
30862;SDS011;17573;55.922;37.540;2022-12-29T12:31:48;26.20;;;14.02;;
30862;SDS011;17573;55.922;37.540;2022-12-29T12:34:23;21.17;;;13.57;;
30862;SDS011;17573;55.922;37.540;2022-12-29T12:46:37;30.75;;;13.48;;
30862;SDS011;17573;55.922;37.540;2022-12-29T12:55:14;30.58;;;14.15;;
30862;SDS011;17573;55.922;37.540;2022-12-29T13:01:07;32.55;;;15.60;;
30862;SDS011;17573;55.922;37.540;2022-12-29T13:07:12;48.72;;;17.45;;
30862;SDS011;17573;55.922;37.540;2022-12-29T13:16:02;37.00;;;14.75;;
30862;SDS011;17573;55.922;37.540;2022-12-29T13:19:23;29.98;;;14.13;;
30862;SDS011;17573;55.922;37.540;2022-12-29T13:25:42;33.63;;;13.55;;
30862;SDS011;17573;55.922;37.540;2022-12-29T13:28:38;24.30;;;14.23;;
30862;SDS011;17573;55.922;37.540;2022-12-29T13:37:15;32.17;;;15.30;;
30862;SDS011;17573;55.922;37.540;2022-12-29T13:40:00;31.27;;;16.67;;
30862;SDS011;17573;55.922;37.540;2022-12-29T13:42:56;30.77;;;16.30;;
30862;SDS011;17573;55.922;37.540;2022-12-29T13:45:30;36.17;;;18.17;;
30862;SDS011;17573;55.922;37.540;2022-12-29T13:49:10;34.00;;;17.00;;
30862;SDS011;17573;55.922;37.540;2022-12-29T13:51:24;38.03;;;17.98;;
30862;SDS011;17573;55.922;37.540;2022-12-29T14:00:26;33.90;;;16.52;;
30862;SDS011;17573;55.922;37.540;2022-12-29T14:09:26;28.80;;;16.30;;
30862;SDS011;17573;55.922;37.540;2022-12-29T14:12:42;29.15;;;16.00;;
30862;SDS011;17573;55.922;37.540;2022-12-29T14:15:19;41.80;;;20.52;;
30862;SDS011;17573;55.922;37.540;2022-12-29T14:18:19;32.83;;;20.08;;
30862;SDS011;17573;55.922;37.540;2022-12-29T14:23:50;29.67;;;18.67;;
30862;SDS011;17573;55.922;37.540;2022-12-29T14:31:57;39.00;;;20.17;;
30862;SDS011;17573;55.922;37.540;2022-12-29T14:34:59;34.85;;;19.90;;
30862;SDS011;17573;55.922;37.540;2022-12-29T14:37:36;49.58;;;26.92;;
30862;SDS011;17573;55.922;37.540;2022-12-29T14:40:29;37.05;;;19.55;;
30862;SDS011;17573;55.922;37.540;2022-12-29T14:43:02;42.92;;;19.48;;
30862;SDS011;17573;55.922;37.540;2022-12-29T14:46:25;48.88;;;19.92;;
30862;SDS011;17573;55.922;37.540;2022-12-29T14:48:58;41.58;;;20.30;;
30862;SDS011;17573;55.922;37.540;2022-12-29T14:51:52;36.25;;;19.65;;
30862;SDS011;17573;55.922;37.540;2022-12-29T14:57:32;35.63;;;20.92;;
30862;SDS011;17573;55.922;37.540;2022-12-29T15:00:07;46.55;;;20.48;;
30862;SDS011;17573;55.922;37.540;2022-12-29T15:03:07;45.97;;;20.73;;
30862;SDS011;17573;55.922;37.540;2022-12-29T15:05:44;41.72;;;21.10;;
30862;SDS011;17573;55.922;37.540;2022-12-29T15:08:42;45.47;;;22.05;;
30862;SDS011;17573;55.922;37.540;2022-12-29T15:11:21;49.55;;;21.42;;
30862;SDS011;17573;55.922;37.540;2022-12-29T15:14:30;48.33;;;25.25;;
30862;SDS011;17573;55.922;37.540;2022-12-29T15:17:20;48.28;;;20.40;;
30862;SDS011;17573;55.922;37.540;2022-12-29T15:20:31;42.75;;;20.92;;
30862;SDS011;17573;55.922;37.540;2022-12-29T15:23:09;42.17;;;22.17;;
30862;SDS011;17573;55.922;37.540;2022-12-29T15:26:04;39.75;;;21.33;;
30862;SDS011;17573;55.922;37.540;2022-12-29T15:28:40;49.67;;;23.35;;
30862;SDS011;17573;55.922;37.540;2022-12-29T15:31:34;47.22;;;23.13;;
30862;SDS011;17573;55.922;37.540;2022-12-29T15:34:20;73.38;;;30.45;;
30862;SDS011;17573;55.922;37.540;2022-12-29T15:37:17;47.95;;;21.50;;
30862;SDS011;17573;55.922;37.540;2022-12-29T15:39:52;46.47;;;23.30;;
30862;SDS011;17573;55.922;37.540;2022-12-29T15:45:23;42.25;;;22.42;;
30862;SDS011;17573;55.922;37.540;2022-12-29T15:48:21;40.67;;;22.38;;
30862;SDS011;17573;55.922;37.540;2022-12-29T15:50:55;48.67;;;23.20;;
30862;SDS011;17573;55.922;37.540;2022-12-29T15:53:48;51.30;;;23.05;;
30862;SDS011;17573;55.922;37.540;2022-12-29T15:56:22;38.67;;;22.85;;
30862;SDS011;17573;55.922;37.540;2022-12-29T16:01:58;69.43;;;29.38;;
30862;SDS011;17573;55.922;37.540;2022-12-29T16:04:51;48.75;;;23.20;;
30862;SDS011;17573;55.922;37.540;2022-12-29T16:07:27;46.30;;;24.65;;
30862;SDS011;17573;55.922;37.540;2022-12-29T16:10:28;52.55;;;22.75;;
30862;SDS011;17573;55.922;37.540;2022-12-29T16:13:17;44.45;;;21.15;;
30862;SDS011;17573;55.922;37.540;2022-12-29T16:16:18;41.95;;;23.13;;
30862;SDS011;17573;55.922;37.540;2022-12-29T16:18:54;43.22;;;24.55;;
30862;SDS011;17573;55.922;37.540;2022-12-29T16:21:48;42.78;;;21.10;;
30862;SDS011;17573;55.922;37.540;2022-12-29T16:24:22;35.90;;;20.70;;
30862;SDS011;17573;55.922;37.540;2022-12-29T16:27:19;45.42;;;23.55;;
30862;SDS011;17573;55.922;37.540;2022-12-29T16:29:54;42.10;;;22.27;;
30862;SDS011;17573;55.922;37.540;2022-12-29T16:32:48;41.13;;;21.63;;
30862;SDS011;17573;55.922;37.540;2022-12-29T16:35:24;45.35;;;21.10;;
30862;SDS011;17573;55.922;37.540;2022-12-29T16:38:19;42.67;;;21.08;;
30862;SDS011;17573;55.922;37.540;2022-12-29T16:40:54;44.92;;;21.20;;
30862;SDS011;17573;55.922;37.540;2022-12-29T16:43:49;40.05;;;20.73;;
30862;SDS011;17573;55.922;37.540;2022-12-29T16:49:57;43.28;;;22.00;;
30862;SDS011;17573;55.922;37.540;2022-12-29T16:52:43;37.45;;;22.70;;
30862;SDS011;17573;55.922;37.540;2022-12-29T16:55:48;40.78;;;21.90;;
30862;SDS011;17573;55.922;37.540;2022-12-29T16:58:24;65.07;;;23.15;;
30862;SDS011;17573;55.922;37.540;2022-12-29T17:01:20;48.72;;;23.38;;
30862;SDS011;17573;55.922;37.540;2022-12-29T17:03:53;38.17;;;20.83;;
30862;SDS011;17573;55.922;37.540;2022-12-29T17:06:50;45.08;;;23.27;;
30862;SDS011;17573;55.922;37.540;2022-12-29T17:09:25;46.03;;;25.10;;
30862;SDS011;17573;55.922;37.540;2022-12-29T17:12:25;47.50;;;26.27;;
30862;SDS011;17573;55.922;37.540;2022-12-29T17:15:07;52.17;;;24.88;;
30862;SDS011;17573;55.922;37.540;2022-12-29T17:18:02;52.55;;;24.65;;
30862;SDS011;17573;55.922;37.540;2022-12-29T17:20:36;50.25;;;23.67;;
30862;SDS011;17573;55.922;37.540;2022-12-29T17:23:29;62.50;;;24.13;;
30862;SDS011;17573;55.922;37.540;2022-12-29T17:26:03;51.00;;;25.08;;
30862;SDS011;17573;55.922;37.540;2022-12-29T17:28:56;53.97;;;25.20;;
30862;SDS011;17573;55.922;37.540;2022-12-29T17:31:28;48.40;;;24.13;;
30862;SDS011;17573;55.922;37.540;2022-12-29T17:34:20;57.97;;;26.63;;
30862;SDS011;17573;55.922;37.540;2022-12-29T17:36:54;78.60;;;27.08;;
30862;SDS011;17573;55.922;37.540;2022-12-29T17:39:46;61.03;;;27.40;;
30862;SDS011;17573;55.922;37.540;2022-12-29T17:42:20;56.08;;;27.95;;
30862;SDS011;17573;55.922;37.540;2022-12-29T17:45:15;68.38;;;29.25;;
30862;SDS011;17573;55.922;37.540;2022-12-29T17:47:49;64.07;;;27.75;;
30862;SDS011;17573;55.922;37.540;2022-12-29T17:50:47;81.25;;;34.97;;
30862;SDS011;17573;55.922;37.540;2022-12-29T17:53:22;84.40;;;34.10;;
30862;SDS011;17573;55.922;37.540;2022-12-29T17:56:15;75.10;;;32.17;;
30862;SDS011;17573;55.922;37.540;2022-12-29T17:58:48;85.57;;;32.33;;
30862;SDS011;17573;55.922;37.540;2022-12-29T18:01:42;75.00;;;30.73;;
30862;SDS011;17573;55.922;37.540;2022-12-29T18:04:16;84.00;;;31.27;;
30862;SDS011;17573;55.922;37.540;2022-12-29T18:07:10;76.13;;;31.48;;
30862;SDS011;17573;55.922;37.540;2022-12-29T18:09:43;90.97;;;32.55;;
30862;SDS011;17573;55.922;37.540;2022-12-29T18:12:38;88.55;;;34.00;;
30862;SDS011;17573;55.922;37.540;2022-12-29T18:15:16;88.60;;;31.92;;
30862;SDS011;17573;55.922;37.540;2022-12-29T18:18:10;81.90;;;33.53;;
30862;SDS011;17573;55.922;37.540;2022-12-29T18:20:48;83.75;;;33.80;;
30862;SDS011;17573;55.922;37.540;2022-12-29T18:23:43;67.95;;;29.60;;
30862;SDS011;17573;55.922;37.540;2022-12-29T18:26:17;80.00;;;33.35;;
30862;SDS011;17573;55.922;37.540;2022-12-29T18:29:16;86.75;;;32.63;;
30862;SDS011;17573;55.922;37.540;2022-12-29T18:31:48;96.47;;;31.30;;
30862;SDS011;17573;55.922;37.540;2022-12-29T18:34:41;84.50;;;34.05;;
30862;SDS011;17573;55.922;37.540;2022-12-29T18:37:14;79.80;;;32.35;;
30862;SDS011;17573;55.922;37.540;2022-12-29T18:40:07;81.63;;;33.40;;
30862;SDS011;17573;55.922;37.540;2022-12-29T18:42:43;88.70;;;33.10;;
30862;SDS011;17573;55.922;37.540;2022-12-29T18:45:36;85.80;;;35.25;;
30862;SDS011;17573;55.922;37.540;2022-12-29T18:48:10;97.63;;;35.25;;
30862;SDS011;17573;55.922;37.540;2022-12-29T18:51:05;97.05;;;39.45;;
30862;SDS011;17573;55.922;37.540;2022-12-29T18:53:38;95.85;;;34.72;;